sensor_id;sensor_type;location;lat;lon;timestamp;pressure;altitude;pressure_sealevel;temperature;humidity
71666;BME280;59503;53.486;10.196;2023-04-26T00:01:14;101487.13;;;2.35;100.00
71666;BME280;59503;53.486;10.196;2023-04-26T00:03:40;101490.81;;;2.39;100.00
71666;BME280;59503;53.486;10.196;2023-04-26T00:06:06;101484.25;;;2.50;100.00
71666;BME280;59503;53.486;10.196;2023-04-26T00:08:34;101496.56;;;2.51;100.00
71666;BME280;59503;53.486;10.196;2023-04-26T00:10:59;101489.47;;;2.60;100.00
71666;BME280;59503;53.486;10.196;2023-04-26T00:13:25;101488.72;;;2.73;100.00
71666;BME280;59503;53.486;10.196;2023-04-26T00:15:50;101485.53;;;2.71;100.00
71666;BME280;59503;53.486;10.196;2023-04-26T00:18:15;101476.75;;;2.66;100.00
71666;BME280;59503;53.486;10.196;2023-04-26T00:20:42;101478.88;;;2.69;100.00
71666;BME280;59503;53.486;10.196;2023-04-26T00:23:07;101490.16;;;2.66;100.00
71666;BME280;59503;53.486;10.196;2023-04-26T00:25:36;101492.16;;;2.60;100.00
71666;BME280;59503;53.486;10.196;2023-04-26T00:28:02;101495.34;;;2.62;100.00
71666;BME280;59503;53.486;10.196;2023-04-26T00:30:27;101497.59;;;2.55;100.00
71666;BME280;59503;53.486;10.196;2023-04-26T00:32:52;101495.69;;;2.55;100.00
71666;BME280;59503;53.486;10.196;2023-04-26T00:35:18;101495.13;;;2.59;100.00
71666;BME280;59503;53.486;10.196;2023-04-26T00:37:43;101493.38;;;2.49;100.00
71666;BME280;59503;53.486;10.196;2023-04-26T00:40:09;101502.34;;;2.39;100.00
71666;BME280;59503;53.486;10.196;2023-04-26T00:42:37;101513.91;;;2.40;100.00
71666;BME280;59503;53.486;10.196;2023-04-26T00:45:03;101515.84;;;2.53;100.00
71666;BME280;59503;53.486;10.196;2023-04-26T00:47:29;101508.75;;;2.62;100.00
71666;BME280;59503;53.486;10.196;2023-04-26T00:49:55;101508.56;;;2.77;100.00
71666;BME280;59503;53.486;10.196;2023-04-26T00:52:21;101501.28;;;2.78;100.00
71666;BME280;59503;53.486;10.196;2023-04-26T00:54:48;101505.56;;;2.79;100.00
71666;BME280;59503;53.486;10.196;2023-04-26T00:57:13;101503.97;;;2.78;100.00
71666;BME280;59503;53.486;10.196;2023-04-26T00:59:39;101503.81;;;2.88;100.00
71666;BME280;59503;53.486;10.196;2023-04-26T01:02:05;101502.59;;;2.80;100.00
71666;BME280;59503;53.486;10.196;2023-04-26T01:04:31;101504.75;;;2.78;100.00
71666;BME280;59503;53.486;10.196;2023-04-26T01:06:58;101501.94;;;2.70;100.00
71666;BME280;59503;53.486;10.196;2023-04-26T01:09:23;101508.25;;;2.60;100.00
71666;BME280;59503;53.486;10.196;2023-04-26T01:11:50;101503.56;;;2.47;100.00
71666;BME280;59503;53.486;10.196;2023-04-26T01:14:16;101501.91;;;2.32;100.00
71666;BME280;59503;53.486;10.196;2023-04-26T01:16:42;101502.91;;;2.18;100.00
71666;BME280;59503;53.486;10.196;2023-04-26T01:19:11;101507.28;;;2.09;100.00
71666;BME280;59503;53.486;10.196;2023-04-26T01:21:38;101502.56;;;2.01;100.00
71666;BME280;59503;53.486;10.196;2023-04-26T01:24:04;101518.72;;;1.96;100.00
71666;BME280;59503;53.486;10.196;2023-04-26T01:26:30;101518.66;;;2.01;100.00
71666;BME280;59503;53.486;10.196;2023-04-26T01:28:56;101508.00;;;1.96;100.00
71666;BME280;59503;53.486;10.196;2023-04-26T01:31:22;101504.91;;;1.84;100.00
71666;BME280;59503;53.486;10.196;2023-04-26T01:33:47;101508.22;;;1.76;100.00
71666;BME280;59503;53.486;10.196;2023-04-26T01:36:12;101514.97;;;1.68;100.00
71666;BME280;59503;53.486;10.196;2023-04-26T01:38:38;101519.84;;;1.66;100.00
71666;BME280;59503;53.486;10.196;2023-04-26T01:41:03;101523.94;;;1.59;100.00
71666;BME280;59503;53.486;10.196;2023-04-26T01:43:28;101526.66;;;1.54;100.00
71666;BME280;59503;53.486;10.196;2023-04-26T01:45:54;101526.59;;;1.59;100.00
71666;BME280;59503;53.486;10.196;2023-04-26T01:48:19;101508.19;;;1.52;100.00
71666;BME280;59503;53.486;10.196;2023-04-26T01:50:45;101515.84;;;1.64;100.00
71666;BME280;59503;53.486;10.196;2023-04-26T01:53:10;101521.81;;;1.56;100.00
71666;BME280;59503;53.486;10.196;2023-04-26T01:55:35;101516.50;;;1.51;100.00
71666;BME280;59503;53.486;10.196;2023-04-26T01:58:00;101506.41;;;1.43;100.00
71666;BME280;59503;53.486;10.196;2023-04-26T02:00:28;101515.94;;;1.54;100.00
71666;BME280;59503;53.486;10.196;2023-04-26T02:02:54;101518.13;;;1.47;100.00
71666;BME280;59503;53.486;10.196;2023-04-26T02:05:20;101508.56;;;1.41;100.00
71666;BME280;59503;53.486;10.196;2023-04-26T02:07:45;101519.47;;;1.49;100.00
71666;BME280;59503;53.486;10.196;2023-04-26T02:10:10;101524.06;;;1.44;100.00
71666;BME280;59503;53.486;10.196;2023-04-26T02:12:36;101521.38;;;1.44;100.00
71666;BME280;59503;53.486;10.196;2023-04-26T02:15:01;101514.50;;;1.38;100.00
71666;BME280;59503;53.486;10.196;2023-04-26T02:17:26;101517.63;;;1.45;100.00
71666;BME280;59503;53.486;10.196;2023-04-26T02:19:53;101509.78;;;1.53;100.00
71666;BME280;59503;53.486;10.196;2023-04-26T02:22:19;101510.06;;;1.52;100.00
71666;BME280;59503;53.486;10.196;2023-04-26T02:24:45;101519.81;;;1.43;100.00
71666;BME280;59503;53.486;10.196;2023-04-26T02:27:11;101523.50;;;1.47;100.00
71666;BME280;59503;53.486;10.196;2023-04-26T02:29:36;101533.38;;;1.51;100.00
71666;BME280;59503;53.486;10.196;2023-04-26T02:32:02;101528.72;;;1.62;100.00
71666;BME280;59503;53.486;10.196;2023-04-26T02:34:29;101531.69;;;1.60;100.00
71666;BME280;59503;53.486;10.196;2023-04-26T02:36:54;101535.25;;;1.79;100.00
71666;BME280;59503;53.486;10.196;2023-04-26T02:39:20;101545.53;;;1.96;100.00
71666;BME280;59503;53.486;10.196;2023-04-26T02:41:45;101554.66;;;2.18;100.00
71666;BME280;59503;53.486;10.196;2023-04-26T02:44:11;101556.66;;;2.31;100.00
71666;BME280;59503;53.486;10.196;2023-04-26T02:46:36;101540.72;;;2.40;100.00
71666;BME280;59503;53.486;10.196;2023-04-26T02:49:01;101543.75;;;2.52;100.00
71666;BME280;59503;53.486;10.196;2023-04-26T02:51:27;101534.13;;;2.51;100.00
71666;BME280;59503;53.486;10.196;2023-04-26T02:53:52;101542.69;;;2.53;100.00
71666;BME280;59503;53.486;10.196;2023-04-26T02:56:17;101533.75;;;2.58;100.00
71666;BME280;59503;53.486;10.196;2023-04-26T02:58:43;101529.56;;;2.51;100.00
71666;BME280;59503;53.486;10.196;2023-04-26T03:01:09;101533.84;;;2.52;100.00
71666;BME280;59503;53.486;10.196;2023-04-26T03:03:34;101518.69;;;2.43;100.00
71666;BME280;59503;53.486;10.196;2023-04-26T03:06:01;101529.78;;;2.55;100.00
71666;BME280;59503;53.486;10.196;2023-04-26T03:08:26;101534.41;;;2.49;100.00
71666;BME280;59503;53.486;10.196;2023-04-26T03:10:51;101529.47;;;2.38;100.00
71666;BME280;59503;53.486;10.196;2023-04-26T03:13:17;101528.50;;;2.29;100.00
71666;BME280;59503;53.486;10.196;2023-04-26T03:15:45;101529.16;;;2.21;100.00
71666;BME280;59503;53.486;10.196;2023-04-26T03:18:10;101527.16;;;2.08;100.00
71666;BME280;59503;53.486;10.196;2023-04-26T03:20:36;101520.06;;;1.93;100.00
71666;BME280;59503;53.486;10.196;2023-04-26T03:23:01;101523.94;;;1.82;100.00
71666;BME280;59503;53.486;10.196;2023-04-26T03:25:26;101537.16;;;1.74;100.00
71666;BME280;59503;53.486;10.196;2023-04-26T03:27:52;101536.06;;;1.80;100.00
71666;BME280;59503;53.486;10.196;2023-04-26T03:30:17;101536.06;;;1.80;100.00
71666;BME280;59503;53.486;10.196;2023-04-26T03:32:43;101532.97;;;1.91;100.00
71666;BME280;59503;53.486;10.196;2023-04-26T03:35:08;101527.97;;;1.85;100.00
71666;BME280;59503;53.486;10.196;2023-04-26T03:37:34;101522.66;;;1.80;100.00
71666;BME280;59503;53.486;10.196;2023-04-26T03:39:59;101518.13;;;1.75;100.00
71666;BME280;59503;53.486;10.196;2023-04-26T03:42:25;101510.72;;;1.67;100.00
71666;BME280;59503;53.486;10.196;2023-04-26T03:44:50;101514.50;;;1.66;100.00
71666;BME280;59503;53.486;10.196;2023-04-26T03:47:15;101524.97;;;1.63;100.00
71666;BME280;59503;53.486;10.196;2023-04-26T03:49:41;101521.81;;;1.56;100.00
71666;BME280;59503;53.486;10.196;2023-04-26T03:52:06;101525.50;;;1.60;100.00
71666;BME280;59503;53.486;10.196;2023-04-26T03:54:33;101521.06;;;1.50;100.00
71666;BME280;59503;53.486;10.196;2023-04-26T03:56:58;101529.84;;;1.56;100.00
71666;BME280;59503;53.486;10.196;2023-04-26T03:59:24;101524.59;;;1.46;100.00
71666;BME280;59503;53.486;10.196;2023-04-26T04:01:49;101534.00;;;1.38;100.00
71666;BME280;59503;53.486;10.196;2023-04-26T04:04:14;101526.25;;;1.37;100.00
71666;BME280;59503;53.486;10.196;2023-04-26T04:06:40;101527.97;;;1.27;100.00
71666;BME280;59503;53.486;10.196;2023-04-26T04:09:05;101534.91;;;1.28;100.00
71666;BME280;59503;53.486;10.196;2023-04-26T04:11:31;101536.25;;;1.26;100.00
71666;BME280;59503;53.486;10.196;2023-04-26T04:13:57;101542.97;;;1.23;100.00
71666;BME280;59503;53.486;10.196;2023-04-26T04:16:22;101540.59;;;1.22;100.00
71666;BME280;59503;53.486;10.196;2023-04-26T04:18:47;101537.63;;;1.23;100.00
71666;BME280;59503;53.486;10.196;2023-04-26T04:21:13;101538.19;;;1.20;100.00
71666;BME280;59503;53.486;10.196;2023-04-26T04:23:38;101540.63;;;1.17;100.00
71666;BME280;59503;53.486;10.196;2023-04-26T04:26:03;101542.25;;;1.13;100.00
71666;BME280;59503;53.486;10.196;2023-04-26T04:28:31;101537.47;;;1.10;100.00
71666;BME280;59503;53.486;10.196;2023-04-26T04:30:56;101547.59;;;1.13;100.00
71666;BME280;59503;53.486;10.196;2023-04-26T04:33:22;101552.56;;;1.29;100.00
71666;BME280;59503;53.486;10.196;2023-04-26T04:35:49;101541.81;;;1.35;100.00
71666;BME280;59503;53.486;10.196;2023-04-26T04:38:16;101539.94;;;1.35;100.00
71666;BME280;59503;53.486;10.196;2023-04-26T04:40:42;101550.75;;;1.54;100.00
71666;BME280;59503;53.486;10.196;2023-04-26T04:43:07;101544.31;;;1.55;100.00
71666;BME280;59503;53.486;10.196;2023-04-26T04:45:33;101545.50;;;1.44;100.00
71666;BME280;59503;53.486;10.196;2023-04-26T04:47:59;101557.44;;;1.56;100.00
71666;BME280;59503;53.486;10.196;2023-04-26T04:50:25;101560.19;;;1.51;100.00
71666;BME280;59503;53.486;10.196;2023-04-26T04:52:50;101569.50;;;1.54;100.00
71666;BME280;59503;53.486;10.196;2023-04-26T04:55:15;101571.06;;;1.60;100.00
71666;BME280;59503;53.486;10.196;2023-04-26T04:57:41;101580.66;;;1.66;100.00
71666;BME280;59503;53.486;10.196;2023-04-26T05:00:07;101572.88;;;1.69;100.00
71666;BME280;59503;53.486;10.196;2023-04-26T05:02:36;101568.34;;;1.65;100.00
71666;BME280;59503;53.486;10.196;2023-04-26T05:05:03;101564.13;;;1.59;100.00
71666;BME280;59503;53.486;10.196;2023-04-26T05:07:30;101573.25;;;1.58;100.00
71666;BME280;59503;53.486;10.196;2023-04-26T05:09:55;101567.94;;;1.81;100.00
71666;BME280;59503;53.486;10.196;2023-04-26T05:12:21;101564.34;;;1.91;100.00
71666;BME280;59503;53.486;10.196;2023-04-26T05:14:46;101568.09;;;2.13;100.00
71666;BME280;59503;53.486;10.196;2023-04-26T05:17:12;101561.28;;;2.26;100.00
71666;BME280;59503;53.486;10.196;2023-04-26T05:19:37;101562.72;;;2.37;100.00
71666;BME280;59503;53.486;10.196;2023-04-26T05:22:02;101559.22;;;2.41;100.00
71666;BME280;59503;53.486;10.196;2023-04-26T05:24:31;101564.38;;;2.57;100.00
71666;BME280;59503;53.486;10.196;2023-04-26T05:27:00;101565.69;;;2.59;100.00
71666;BME280;59503;53.486;10.196;2023-04-26T05:29:31;101573.53;;;2.74;100.00
71666;BME280;59503;53.486;10.196;2023-04-26T05:31:56;101569.25;;;2.73;100.00
71666;BME280;59503;53.486;10.196;2023-04-26T05:34:22;101577.31;;;2.73;100.00
71666;BME280;59503;53.486;10.196;2023-04-26T05:36:48;101577.16;;;2.83;100.00
71666;BME280;59503;53.486;10.196;2023-04-26T05:39:14;101582.63;;;2.97;100.00
71666;BME280;59503;53.486;10.196;2023-04-26T05:41:39;101580.22;;;2.95;100.00
71666;BME280;59503;53.486;10.196;2023-04-26T05:44:05;101584.78;;;2.95;100.00
71666;BME280;59503;53.486;10.196;2023-04-26T05:46:30;101581.16;;;2.86;100.00
71666;BME280;59503;53.486;10.196;2023-04-26T05:48:55;101590.59;;;2.83;100.00
71666;BME280;59503;53.486;10.196;2023-04-26T05:51:21;101589.34;;;2.76;100.00
71666;BME280;59503;53.486;10.196;2023-04-26T05:53:46;101588.66;;;2.89;100.00
71666;BME280;59503;53.486;10.196;2023-04-26T05:56:11;101593.66;;;3.14;100.00
71666;BME280;59503;53.486;10.196;2023-04-26T05:58:37;101596.72;;;3.39;100.00
71666;BME280;59503;53.486;10.196;2023-04-26T06:01:02;101593.84;;;3.68;100.00
71666;BME280;59503;53.486;10.196;2023-04-26T06:03:28;101590.34;;;4.00;100.00
71666;BME280;59503;53.486;10.196;2023-04-26T06:05:53;101597.03;;;4.43;100.00
71666;BME280;59503;53.486;10.196;2023-04-26T06:08:18;101594.56;;;4.46;100.00
71666;BME280;59503;53.486;10.196;2023-04-26T06:10:43;101599.53;;;4.53;100.00
71666;BME280;59503;53.486;10.196;2023-04-26T06:13:11;101595.94;;;4.44;100.00
71666;BME280;59503;53.486;10.196;2023-04-26T06:15:36;101585.06;;;4.49;100.00
71666;BME280;59503;53.486;10.196;2023-04-26T06:18:01;101593.16;;;4.49;100.00
71666;BME280;59503;53.486;10.196;2023-04-26T06:20:28;101587.38;;;4.42;100.00
71666;BME280;59503;53.486;10.196;2023-04-26T06:22:53;101588.56;;;4.36;100.00
71666;BME280;59503;53.486;10.196;2023-04-26T06:25:19;101585.88;;;4.36;100.00
71666;BME280;59503;53.486;10.196;2023-04-26T06:27:44;101589.28;;;4.41;100.00
71666;BME280;59503;53.486;10.196;2023-04-26T06:30:10;101587.94;;;4.66;100.00
71666;BME280;59503;53.486;10.196;2023-04-26T06:32:37;101593.50;;;4.83;100.00
71666;BME280;59503;53.486;10.196;2023-04-26T06:35:03;101591.41;;;4.93;100.00
71666;BME280;59503;53.486;10.196;2023-04-26T06:37:28;101595.88;;;4.98;100.00
71666;BME280;59503;53.486;10.196;2023-04-26T06:39:53;101597.88;;;5.28;100.00
71666;BME280;59503;53.486;10.196;2023-04-26T06:42:19;101576.06;;;5.60;100.00
71666;BME280;59503;53.486;10.196;2023-04-26T06:44:44;101588.94;;;5.85;100.00
71666;BME280;59503;53.486;10.196;2023-04-26T06:47:10;101587.81;;;5.86;100.00
71666;BME280;59503;53.486;10.196;2023-04-26T06:49:35;101593.81;;;6.05;100.00
71666;BME280;59503;53.486;10.196;2023-04-26T06:52:01;101585.75;;;6.14;100.00
71666;BME280;59503;53.486;10.196;2023-04-26T06:54:28;101581.22;;;6.40;100.00
71666;BME280;59503;53.486;10.196;2023-04-26T06:56:54;101594.63;;;6.45;100.00
71666;BME280;59503;53.486;10.196;2023-04-26T06:59:19;101589.31;;;6.40;100.00
71666;BME280;59503;53.486;10.196;2023-04-26T07:01:44;101575.56;;;6.59;100.00
71666;BME280;59503;53.486;10.196;2023-04-26T07:04:10;101588.59;;;6.57;100.00
71666;BME280;59503;53.486;10.196;2023-04-26T07:06:36;101583.66;;;6.59;100.00
71666;BME280;59503;53.486;10.196;2023-04-26T07:09:02;101589.25;;;6.71;100.00
71666;BME280;59503;53.486;10.196;2023-04-26T07:11:29;101595.66;;;6.92;100.00
71666;BME280;59503;53.486;10.196;2023-04-26T07:13:54;101596.44;;;6.92;100.00
71666;BME280;59503;53.486;10.196;2023-04-26T07:16:20;101590.09;;;6.97;100.00
71666;BME280;59503;53.486;10.196;2023-04-26T07:18:46;101603.00;;;7.17;100.00
71666;BME280;59503;53.486;10.196;2023-04-26T07:21:16;101596.31;;;7.06;100.00
71666;BME280;59503;53.486;10.196;2023-04-26T07:23:42;101609.50;;;7.24;100.00
71666;BME280;59503;53.486;10.196;2023-04-26T07:26:09;101595.97;;;7.50;100.00
71666;BME280;59503;53.486;10.196;2023-04-26T07:28:35;101594.50;;;7.70;100.00
71666;BME280;59503;53.486;10.196;2023-04-26T07:31:00;101606.44;;;7.86;100.00
71666;BME280;59503;53.486;10.196;2023-04-26T07:33:26;101602.53;;;8.12;100.00
71666;BME280;59503;53.486;10.196;2023-04-26T07:35:55;101600.91;;;7.65;100.00
71666;BME280;59503;53.486;10.196;2023-04-26T07:38:21;101603.78;;;7.51;100.00
71666;BME280;59503;53.486;10.196;2023-04-26T07:40:46;101597.09;;;7.57;100.00
71666;BME280;59503;53.486;10.196;2023-04-26T07:43:12;101606.44;;;7.77;99.23
71666;BME280;59503;53.486;10.196;2023-04-26T07:45:39;101601.56;;;8.08;99.60
71666;BME280;59503;53.486;10.196;2023-04-26T07:48:05;101605.22;;;8.21;94.11
71666;BME280;59503;53.486;10.196;2023-04-26T07:50:30;101613.06;;;8.05;93.72
71666;BME280;59503;53.486;10.196;2023-04-26T07:52:56;101603.59;;;8.28;90.58
71666;BME280;59503;53.486;10.196;2023-04-26T07:55:21;101596.72;;;8.39;85.88
71666;BME280;59503;53.486;10.196;2023-04-26T07:57:46;101612.31;;;8.42;86.30
71666;BME280;59503;53.486;10.196;2023-04-26T08:00:12;101606.34;;;8.87;85.79
71666;BME280;59503;53.486;10.196;2023-04-26T08:02:38;101596.28;;;9.08;82.97
71666;BME280;59503;53.486;10.196;2023-04-26T08:05:04;101607.47;;;9.80;83.45
71666;BME280;59503;53.486;10.196;2023-04-26T08:07:29;101614.06;;;9.91;72.66
71666;BME280;59503;53.486;10.196;2023-04-26T08:09:55;101607.41;;;9.68;71.45
71666;BME280;59503;53.486;10.196;2023-04-26T08:12:20;101609.84;;;10.14;72.21
71666;BME280;59503;53.486;10.196;2023-04-26T08:14:45;101606.56;;;9.88;66.50
71666;BME280;59503;53.486;10.196;2023-04-26T08:17:11;101613.53;;;9.65;70.12
71666;BME280;59503;53.486;10.196;2023-04-26T08:19:36;101621.38;;;9.46;73.73
71666;BME280;59503;53.486;10.196;2023-04-26T08:22:02;101617.19;;;9.28;73.54
71666;BME280;59503;53.486;10.196;2023-04-26T08:24:28;101635.72;;;8.47;80.00
71666;BME280;59503;53.486;10.196;2023-04-26T08:26:53;101664.16;;;6.87;100.00
71666;BME280;59503;53.486;10.196;2023-04-26T08:29:19;101674.00;;;6.13;100.00
71666;BME280;59503;53.486;10.196;2023-04-26T08:31:44;101677.97;;;6.07;100.00
71666;BME280;59503;53.486;10.196;2023-04-26T08:34:10;101658.16;;;5.68;100.00
71666;BME280;59503;53.486;10.196;2023-04-26T08:36:38;101672.88;;;5.84;100.00
71666;BME280;59503;53.486;10.196;2023-04-26T08:39:03;101672.19;;;6.00;100.00
71666;BME280;59503;53.486;10.196;2023-04-26T08:41:36;101657.69;;;6.18;100.00
71666;BME280;59503;53.486;10.196;2023-04-26T08:44:03;101659.69;;;6.04;100.00
71666;BME280;59503;53.486;10.196;2023-04-26T08:46:34;101659.19;;;6.02;100.00
71666;BME280;59503;53.486;10.196;2023-04-26T08:49:12;101655.94;;;6.14;100.00
71666;BME280;59503;53.486;10.196;2023-04-26T08:51:42;101653.59;;;6.60;100.00
71666;BME280;59503;53.486;10.196;2023-04-26T08:54:08;101654.13;;;6.79;100.00
71666;BME280;59503;53.486;10.196;2023-04-26T08:56:35;101656.00;;;6.62;100.00
71666;BME280;59503;53.486;10.196;2023-04-26T08:59:00;101651.63;;;6.91;100.00
71666;BME280;59503;53.486;10.196;2023-04-26T09:01:27;101646.91;;;7.14;100.00
71666;BME280;59503;53.486;10.196;2023-04-26T09:03:54;101656.44;;;7.11;100.00
71666;BME280;59503;53.486;10.196;2023-04-26T09:06:21;101649.59;;;7.14;100.00
71666;BME280;59503;53.486;10.196;2023-04-26T09:08:47;101652.59;;;7.12;100.00
71666;BME280;59503;53.486;10.196;2023-04-26T09:11:12;101655.97;;;7.43;100.00
71666;BME280;59503;53.486;10.196;2023-04-26T09:13:38;101641.63;;;7.69;100.00
71666;BME280;59503;53.486;10.196;2023-04-26T09:16:03;101654.47;;;8.14;100.00
71666;BME280;59503;53.486;10.196;2023-04-26T09:18:29;101652.84;;;8.30;100.00
71666;BME280;59503;53.486;10.196;2023-04-26T09:23:28;101649.53;;;8.25;100.00
71666;BME280;59503;53.486;10.196;2023-04-26T09:25:53;101659.06;;;8.14;100.00
71666;BME280;59503;53.486;10.196;2023-04-26T09:28:21;101650.22;;;7.96;100.00
71666;BME280;59503;53.486;10.196;2023-04-26T09:30:47;101651.94;;;8.09;100.00
71666;BME280;59503;53.486;10.196;2023-04-26T09:33:13;101652.28;;;7.99;100.00
71666;BME280;59503;53.486;10.196;2023-04-26T09:35:40;101651.66;;;7.85;100.00
71666;BME280;59503;53.486;10.196;2023-04-26T09:38:10;101649.03;;;8.14;100.00
71666;BME280;59503;53.486;10.196;2023-04-26T09:40:42;101645.00;;;8.37;100.00
71666;BME280;59503;53.486;10.196;2023-04-26T09:43:10;101638.13;;;8.77;95.55
71666;BME280;59503;53.486;10.196;2023-04-26T09:45:46;101639.72;;;9.49;90.09
71666;BME280;59503;53.486;10.196;2023-04-26T09:50:41;101646.31;;;10.37;81.68
71666;BME280;59503;53.486;10.196;2023-04-26T09:53:07;101645.53;;;11.49;79.80
71666;BME280;59503;53.486;10.196;2023-04-26T09:55:33;101646.00;;;12.37;72.39
71666;BME280;59503;53.486;10.196;2023-04-26T09:57:58;101649.72;;;12.44;67.54
71666;BME280;59503;53.486;10.196;2023-04-26T10:00:26;101650.06;;;12.27;63.72
71666;BME280;59503;53.486;10.196;2023-04-26T10:02:53;101648.22;;;11.61;63.67
71666;BME280;59503;53.486;10.196;2023-04-26T10:05:19;101656.00;;;11.35;62.26
71666;BME280;59503;53.486;10.196;2023-04-26T10:07:46;101638.69;;;11.67;58.81
71666;BME280;59503;53.486;10.196;2023-04-26T10:10:11;101646.97;;;11.70;57.39
71666;BME280;59503;53.486;10.196;2023-04-26T10:12:37;101650.59;;;11.62;56.82
71666;BME280;59503;53.486;10.196;2023-04-26T10:15:05;101648.78;;;11.66;59.13
71666;BME280;59503;53.486;10.196;2023-04-26T10:17:32;101637.88;;;11.26;55.61
71666;BME280;59503;53.486;10.196;2023-04-26T10:19:58;101642.22;;;11.67;60.20
71666;BME280;59503;53.486;10.196;2023-04-26T10:22:28;101644.88;;;11.79;57.24
71666;BME280;59503;53.486;10.196;2023-04-26T10:24:55;101642.03;;;11.36;54.01
71666;BME280;59503;53.486;10.196;2023-04-26T10:30:15;101650.41;;;10.67;56.20
71666;BME280;59503;53.486;10.196;2023-04-26T10:35:22;101659.75;;;8.57;79.21
71666;BME280;59503;53.486;10.196;2023-04-26T10:45:45;101671.09;;;7.53;99.68
71666;BME280;59503;53.486;10.196;2023-04-26T10:48:29;101658.19;;;7.67;99.83
71666;BME280;59503;53.486;10.196;2023-04-26T10:55:51;101675.97;;;8.11;84.36
71666;BME280;59503;53.486;10.196;2023-04-26T10:58:30;101667.50;;;8.29;88.72
71666;BME280;59503;53.486;10.196;2023-04-26T11:01:15;101673.78;;;8.50;84.77
71666;BME280;59503;53.486;10.196;2023-04-26T11:03:42;101670.19;;;8.75;85.00
71666;BME280;59503;53.486;10.196;2023-04-26T11:06:09;101664.75;;;9.05;83.08
71666;BME280;59503;53.486;10.196;2023-04-26T11:08:38;101663.97;;;9.04;80.56
71666;BME280;59503;53.486;10.196;2023-04-26T11:13:32;101666.81;;;9.69;81.78
71666;BME280;59503;53.486;10.196;2023-04-26T11:16:01;101672.22;;;9.90;82.91
71666;BME280;59503;53.486;10.196;2023-04-26T11:18:28;101671.22;;;9.94;83.56
71666;BME280;59503;53.486;10.196;2023-04-26T11:20:54;101659.00;;;9.68;82.08
71666;BME280;59503;53.486;10.196;2023-04-26T11:23:19;101667.44;;;9.34;84.78
71666;BME280;59503;53.486;10.196;2023-04-26T11:25:45;101680.19;;;9.13;84.26
71666;BME280;59503;53.486;10.196;2023-04-26T11:28:11;101680.38;;;8.41;89.32
71666;BME280;59503;53.486;10.196;2023-04-26T11:30:36;101680.25;;;8.20;97.53
71666;BME280;59503;53.486;10.196;2023-04-26T11:33:02;101670.44;;;7.73;100.00
71666;BME280;59503;53.486;10.196;2023-04-26T11:35:34;101685.41;;;7.62;100.00
71666;BME280;59503;53.486;10.196;2023-04-26T11:38:03;101674.75;;;7.57;100.00
71666;BME280;59503;53.486;10.196;2023-04-26T11:40:30;101673.94;;;7.65;100.00
71666;BME280;59503;53.486;10.196;2023-04-26T11:43:05;101680.66;;;7.59;100.00
71666;BME280;59503;53.486;10.196;2023-04-26T11:45:32;101670.91;;;7.84;100.00
71666;BME280;59503;53.486;10.196;2023-04-26T11:47:59;101679.66;;;8.06;100.00
71666;BME280;59503;53.486;10.196;2023-04-26T11:50:25;101668.31;;;8.13;100.00
71666;BME280;59503;53.486;10.196;2023-04-26T11:52:59;101684.63;;;8.50;95.90
71666;BME280;59503;53.486;10.196;2023-04-26T11:55:32;101670.03;;;8.72;89.99
71666;BME280;59503;53.486;10.196;2023-04-26T11:58:09;101663.84;;;9.21;92.19
71666;BME280;59503;53.486;10.196;2023-04-26T12:00:34;101656.63;;;9.66;89.75
71666;BME280;59503;53.486;10.196;2023-04-26T12:03:06;101666.25;;;9.96;84.27
71666;BME280;59503;53.486;10.196;2023-04-26T12:05:35;101668.09;;;10.49;86.16
71666;BME280;59503;53.486;10.196;2023-04-26T12:08:01;101661.53;;;10.86;73.36
71666;BME280;59503;53.486;10.196;2023-04-26T12:10:30;101667.72;;;11.11;75.22
71666;BME280;59503;53.486;10.196;2023-04-26T12:12:58;101667.72;;;11.11;72.82
71666;BME280;59503;53.486;10.196;2023-04-26T12:15:28;101678.25;;;10.40;76.64
71666;BME280;59503;53.486;10.196;2023-04-26T12:17:55;101687.97;;;9.96;79.78
71666;BME280;59503;53.486;10.196;2023-04-26T12:20:31;101679.69;;;9.60;81.13
71666;BME280;59503;53.486;10.196;2023-04-26T12:22:57;101668.81;;;9.81;80.40
71666;BME280;59503;53.486;10.196;2023-04-26T12:25:23;101666.97;;;10.62;75.06
71666;BME280;59503;53.486;10.196;2023-04-26T12:27:48;101669.34;;;11.12;67.41
71666;BME280;59503;53.486;10.196;2023-04-26T12:30:13;101677.97;;;11.66;62.92
71666;BME280;59503;53.486;10.196;2023-04-26T12:32:39;101668.69;;;11.43;57.03
71666;BME280;59503;53.486;10.196;2023-04-26T12:35:04;101673.84;;;11.60;58.57
71666;BME280;59503;53.486;10.196;2023-04-26T12:37:30;101666.34;;;12.39;56.89
71666;BME280;59503;53.486;10.196;2023-04-26T12:39:56;101657.78;;;12.25;54.12
71666;BME280;59503;53.486;10.196;2023-04-26T12:42:21;101662.97;;;12.93;56.32
71666;BME280;59503;53.486;10.196;2023-04-26T12:44:46;101658.44;;;11.64;55.20
71666;BME280;59503;53.486;10.196;2023-04-26T12:47:12;101668.56;;;11.91;55.39
71666;BME280;59503;53.486;10.196;2023-04-26T12:49:37;101661.91;;;11.76;56.98
71666;BME280;59503;53.486;10.196;2023-04-26T12:52:03;101668.50;;;11.36;59.42
71666;BME280;59503;53.486;10.196;2023-04-26T12:54:28;101656.78;;;10.83;59.05
71666;BME280;59503;53.486;10.196;2023-04-26T12:56:53;101668.56;;;10.51;59.50
71666;BME280;59503;53.486;10.196;2023-04-26T12:59:19;101662.75;;;10.89;59.68
71666;BME280;59503;53.486;10.196;2023-04-26T13:01:44;101674.44;;;10.89;60.71